Time;durP1;ratioP1;P1;durP2;ratioP2;P2;SDS_P1;SDS_P2;PMS_P1;PMS_P2;Temp;Humidity;BMP_temperature;BMP_pressure;BME280_temperature;BME280_humidity;BME280_pressure;Samples;Min_cycle;Max_cycle;Signal;HPM_P1;HPM_P2
2022/07/24 00:01:10;;;;;;;8.60;7.30;;;;;;;19.30;73.08;99009.41;5084451;28;20256;-54
2022/07/24 00:03:37;;;;;;;8.00;7.20;;;;;;;19.25;73.44;99011.84;5068526;28;20224;-51
2022/07/24 00:06:04;;;;;;;9.23;7.23;;;;;;;19.13;73.82;99011.59;5072446;28;20319;-52
2022/07/24 00:08:31;;;;;;;10.43;7.37;;;;;;;19.08;74.21;99015.88;5080874;28;20506;-51
2022/07/24 00:10:59;;;;;;;9.30;7.43;;;;;;;19.02;73.43;99010.34;5074030;28;20239;-53
2022/07/24 00:13:26;;;;;;;8.53;7.63;;;;;;;18.96;73.48;99008.50;5072080;28;20319;-53
2022/07/24 00:15:52;;;;;;;10.30;8.00;;;;;;;18.89;75.20;99013.69;5072129;28;20302;-53
2022/07/24 00:18:19;;;;;;;9.07;6.83;;;;;;;18.81;74.96;99021.00;5079637;28;20284;-51
2022/07/24 00:20:46;;;;;;;8.57;7.67;;;;;;;18.76;74.62;99018.09;5072376;28;20284;-51
2022/07/24 00:23:13;;;;;;;7.80;7.00;;;;;;;18.72;74.57;99007.91;5075466;28;20222;-51
2022/07/24 00:25:40;;;;;;;10.70;7.17;;;;;;;18.69;74.33;99018.06;5078246;28;20186;-51
2022/07/24 00:28:08;;;;;;;10.23;7.40;;;;;;;18.66;74.97;99016.63;5076178;28;20281;-52
2022/07/24 00:30:35;;;;;;;9.07;7.77;;;;;;;18.66;75.35;99015.78;5076437;28;20200;-52
2022/07/24 00:33:02;;;;;;;10.63;7.43;;;;;;;18.62;75.42;99010.09;5080391;28;20194;-54
2022/07/24 00:35:29;;;;;;;8.87;7.77;;;;;;;18.57;75.58;99000.09;5080276;28;20215;-51
2022/07/24 00:37:55;;;;;;;8.70;7.13;;;;;;;18.52;75.19;98999.03;5075238;28;20209;-51
2022/07/24 00:40:24;;;;;;;8.03;7.23;;;;;;;18.55;75.82;99007.38;5078549;28;20638;-53
2022/07/24 00:42:51;;;;;;;9.83;7.07;;;;;;;18.52;74.83;99002.53;5077845;28;20197;-52
2022/07/24 00:45:20;;;;;;;11.90;6.93;;;;;;;18.44;75.49;98998.19;5077666;28;20218;-53
2022/07/24 00:47:47;;;;;;;13.47;7.77;;;;;;;18.46;76.65;98997.16;5073896;28;20289;-52
2022/07/24 00:50:13;;;;;;;9.97;7.77;;;;;;;18.38;76.34;98998.94;5074310;28;20207;-55
2022/07/24 00:52:40;;;;;;;10.67;7.70;;;;;;;18.33;76.54;98998.72;5074016;28;20597;-54
2022/07/24 00:55:08;;;;;;;11.20;7.57;;;;;;;18.26;78.53;98989.91;5077252;28;20221;-53
2022/07/24 00:57:35;;;;;;;9.37;7.80;;;;;;;18.21;77.94;98993.16;5074802;28;20216;-50
2022/07/24 01:00:02;;;;;;;10.07;7.53;;;;;;;18.20;78.74;98995.97;5073113;28;20195;-52
2022/07/24 01:02:30;;;;;;;12.43;8.10;;;;;;;18.18;77.23;98996.16;5073956;28;20210;-52
2022/07/24 01:04:57;;;;;;;7.83;7.00;;;;;;;18.22;77.16;98991.31;5075849;28;20214;-55
2022/07/24 01:07:23;;;;;;;9.73;8.20;;;;;;;18.21;76.56;98984.38;5075229;28;20206;-55
2022/07/24 01:09:51;;;;;;;8.63;7.80;;;;;;;18.18;78.90;98990.06;5074144;28;20198;-52
2022/07/24 01:12:18;;;;;;;11.47;8.03;;;;;;;18.11;78.69;98988.16;5075532;28;20244;-53
2022/07/24 01:14:45;;;;;;;11.03;8.10;;;;;;;18.09;77.97;98986.75;5075706;28;20642;-53
2022/07/24 01:17:12;;;;;;;8.93;8.03;;;;;;;18.06;77.85;98987.94;5075815;28;20185;-55
2022/07/24 01:19:40;;;;;;;12.40;8.30;;;;;;;18.03;78.37;98974.31;5075322;28;20718;-53
2022/07/24 01:22:08;;;;;;;12.60;7.93;;;;;;;17.98;78.16;98966.94;5072768;28;20201;-53
2022/07/24 01:24:35;;;;;;;13.80;8.17;;;;;;;17.90;79.00;98972.34;5073691;28;20297;-52
2022/07/24 01:27:01;;;;;;;11.43;8.17;;;;;;;17.91;78.64;98968.69;5073564;28;20742;-53
2022/07/24 01:29:28;;;;;;;9.83;8.20;;;;;;;17.92;79.23;98972.97;5072688;28;20185;-53
2022/07/24 01:31:55;;;;;;;10.50;8.50;;;;;;;17.90;80.36;98977.63;5077159;28;20206;-52
2022/07/24 01:34:22;;;;;;;10.40;8.13;;;;;;;17.87;79.84;98978.00;5066782;28;20232;-53
2022/07/24 01:36:50;;;;;;;11.03;8.13;;;;;;;17.85;79.70;98979.00;5067717;28;20205;-54
2022/07/24 01:39:18;;;;;;;10.43;8.37;;;;;;;17.87;79.00;98972.72;5070052;28;20284;-55
2022/07/24 01:41:45;;;;;;;11.80;7.77;;;;;;;17.88;80.07;98974.34;5072907;28;20190;-54
2022/07/24 01:44:11;;;;;;;8.90;8.00;;;;;;;17.88;80.14;98969.88;5067721;28;20217;-53
2022/07/24 01:46:38;;;;;;;10.73;8.03;;;;;;;17.86;80.82;98971.88;5069923;28;20200;-54
2022/07/24 01:49:05;;;;;;;10.10;8.20;;;;;;;17.80;80.97;98981.41;5073367;28;20273;-52
2022/07/24 01:51:32;;;;;;;9.23;7.63;;;;;;;17.75;80.89;98982.97;5068979;28;20199;-53
2022/07/24 01:53:58;;;;;;;9.10;8.20;;;;;;;17.75;82.15;98977.69;5071077;28;20290;-53
2022/07/24 01:56:26;;;;;;;10.53;8.23;;;;;;;17.69;82.04;98981.91;5070986;28;20209;-52
2022/07/24 01:58:53;;;;;;;10.40;8.07;;;;;;;17.71;81.12;98982.53;5072280;28;20194;-52
2022/07/24 02:01:20;;;;;;;10.53;8.37;;;;;;;17.68;81.86;98988.19;5067712;28;20209;-55
2022/07/24 02:03:48;;;;;;;9.53;8.43;;;;;;;17.68;82.81;98985.53;5074372;28;20228;-55
2022/07/24 02:06:14;;;;;;;11.87;8.90;;;;;;;17.71;82.81;98990.44;5072708;28;20277;-55
2022/07/24 02:08:41;;;;;;;9.17;8.03;;;;;;;17.68;83.38;98978.44;5072922;28;20198;-52
2022/07/24 02:11:08;;;;;;;10.43;8.13;;;;;;;17.62;82.90;98981.81;5068116;28;20203;-55
2022/07/24 02:13:36;;;;;;;10.73;7.93;;;;;;;17.63;83.43;98977.38;5065604;28;20222;-56
2022/07/24 02:16:04;;;;;;;10.97;8.73;;;;;;;17.68;82.89;98980.25;5069731;28;20209;-53
2022/07/24 02:18:30;;;;;;;9.60;8.60;;;;;;;17.66;83.60;98983.06;5067624;28;20217;-52
2022/07/24 02:20:57;;;;;;;11.90;8.73;;;;;;;17.61;83.04;98974.91;5065118;28;20202;-54
2022/07/24 02:23:24;;;;;;;12.60;9.00;;;;;;;17.56;83.50;98979.94;5067657;28;20397;-54
2022/07/24 02:25:51;;;;;;;13.50;8.30;;;;;;;17.56;84.44;98980.75;5067146;28;20187;-53
2022/07/24 02:28:19;;;;;;;9.60;8.60;;;;;;;17.57;84.62;98978.94;5068932;28;20202;-51
2022/07/24 02:30:47;;;;;;;9.40;8.47;;;;;;;17.55;85.35;98988.84;5067789;28;20766;-51
2022/07/24 02:33:14;;;;;;;13.67;8.43;;;;;;;17.44;85.39;98992.81;5072404;28;20220;-53
2022/07/24 02:35:41;;;;;;;10.90;8.10;;;;;;;17.42;85.51;98984.25;5072165;28;20704;-52
2022/07/24 02:38:08;;;;;;;12.53;8.90;;;;;;;17.38;86.61;98985.63;5069904;28;20207;-53
2022/07/24 02:40:35;;;;;;;10.03;8.43;;;;;;;17.38;87.01;98989.09;5071055;28;20641;-52
2022/07/24 02:43:02;;;;;;;11.33;9.30;;;;;;;17.39;85.97;98988.09;5076342;28;20206;-52
2022/07/24 02:45:29;;;;;;;10.23;8.87;;;;;;;17.38;85.86;98983.00;5071479;28;20686;-51
2022/07/24 02:47:58;;;;;;;10.70;8.57;;;;;;;17.35;86.63;98986.00;5074504;28;20192;-52
2022/07/24 02:50:29;;;;;;;11.37;8.73;;;;;;;17.32;86.20;98995.13;5073857;28;20307;-52
2022/07/24 02:52:56;;;;;;;10.67;8.87;;;;;;;17.32;86.33;98984.56;5074183;28;20559;-52
2022/07/24 02:55:23;;;;;;;11.53;8.43;;;;;;;17.35;87.14;98989.47;5082105;28;20573;-54
2022/07/24 02:57:50;;;;;;;11.37;8.60;;;;;;;17.30;87.64;98983.94;5075739;28;20221;-51
2022/07/24 03:00:18;;;;;;;14.57;9.30;;;;;;;17.28;86.75;98985.94;5076963;28;20190;-53
2022/07/24 03:02:45;;;;;;;11.70;8.60;;;;;;;17.28;86.86;98980.66;5075617;28;20293;-54
2022/07/24 03:05:14;;;;;;;11.10;9.30;;;;;;;17.23;86.79;98989.13;5068804;28;20396;-52
2022/07/24 03:07:42;;;;;;;12.00;9.17;;;;;;;17.18;87.51;98996.78;5075229;28;20309;-53
2022/07/24 03:10:11;;;;;;;10.20;9.07;;;;;;;17.16;87.90;98992.69;5072556;28;20292;-55
2022/07/24 03:12:38;;;;;;;10.17;9.07;;;;;;;17.16;88.85;98988.22;5072131;28;20216;-54
2022/07/24 03:15:05;;;;;;;10.37;8.77;;;;;;;17.13;88.96;98985.94;5077022;28;20299;-55
2022/07/24 03:17:32;;;;;;;13.07;9.20;;;;;;;17.10;88.78;98983.69;5077558;28;20681;-55
2022/07/24 03:20:20;;;;;;;10.77;9.30;;;;;;;17.06;88.76;98990.31;5076266;28;20203;-54
2022/07/24 03:22:48;;;;;;;11.03;9.53;;;;;;;17.07;90.13;98991.97;5077137;28;20560;-55
2022/07/24 03:25:15;;;;;;;12.70;9.77;;;;;;;17.01;90.06;99000.59;5079631;28;20274;-53
2022/07/24 03:27:42;;;;;;;11.83;9.00;;;;;;;16.95;89.54;98997.69;5073999;28;20311;-53
2022/07/24 03:30:10;;;;;;;10.43;9.13;;;;;;;16.94;90.68;99000.50;5069255;28;20610;-52
2022/07/24 03:32:37;;;;;;;10.10;8.73;;;;;;;16.96;90.71;98995.88;5075774;28;20199;-52
2022/07/24 03:35:04;;;;;;;14.67;9.63;;;;;;;16.94;91.26;98988.16;5077561;28;20228;-55
2022/07/24 03:37:32;;;;;;;11.63;9.63;;;;;;;16.91;91.23;98990.31;5071574;28;20200;-54
2022/07/24 03:39:59;;;;;;;10.10;8.97;;;;;;;16.86;91.54;98993.53;5066613;28;20206;-52
2022/07/24 03:42:26;;;;;;;11.50;9.23;;;;;;;16.86;90.60;98992.69;5072502;28;20208;-51
2022/07/24 03:44:53;;;;;;;11.70;9.23;;;;;;;16.82;90.62;98992.25;5081243;28;20239;-52
2022/07/24 03:47:19;;;;;;;12.37;9.67;;;;;;;16.83;91.55;98996.53;5071445;28;20276;-52
2022/07/24 03:49:46;;;;;;;11.40;9.13;;;;;;;16.84;91.21;98992.88;5072577;28;20192;-52
2022/07/24 03:52:13;;;;;;;14.70;9.40;;;;;;;16.85;91.60;98993.69;5080907;28;20192;-52
2022/07/24 03:54:41;;;;;;;15.23;10.20;;;;;;;16.86;92.03;99001.44;5074192;28;20308;-51
2022/07/24 03:57:08;;;;;;;11.53;9.20;;;;;;;16.84;92.35;98998.16;5078444;28;20262;-51
2022/07/24 03:59:35;;;;;;;12.80;9.27;;;;;;;16.85;92.35;99006.88;5083756;28;20200;-54
2022/07/24 04:02:02;;;;;;;9.67;8.70;;;;;;;16.88;91.66;99006.50;5072525;28;20207;-52
2022/07/24 04:04:29;;;;;;;11.90;10.17;;;;;;;16.90;91.83;99004.50;5068961;28;20699;-54
2022/07/24 04:06:55;;;;;;;10.57;9.47;;;;;;;16.91;91.74;99000.88;5074017;28;20667;-52
2022/07/24 04:09:22;;;;;;;12.43;9.90;;;;;;;16.92;92.64;99007.78;5082307;28;20608;-51
2022/07/24 04:11:50;;;;;;;12.13;10.10;;;;;;;16.92;92.80;99005.97;5073758;28;20199;-54
2022/07/24 04:14:17;;;;;;;11.20;9.70;;;;;;;16.92;92.17;99011.25;5071527;28;20227;-51
2022/07/24 04:17:02;;;;;;;13.67;9.80;;;;;;;16.94;92.68;99006.63;5068887;28;20220;-52
2022/07/24 04:19:29;;;;;;;11.77;9.50;;;;;;;16.94;92.95;99011.88;5072030;28;20576;-52
2022/07/24 04:21:56;;;;;;;15.43;10.60;;;;;;;16.96;92.53;99017.78;5079353;28;20200;-52
2022/07/24 04:24:23;;;;;;;11.73;9.90;;;;;;;17.02;92.54;99016.25;5069152;28;20220;-53
2022/07/24 04:26:51;;;;;;;11.40;10.17;;;;;;;17.04;91.61;99022.19;5068505;28;20186;-52
2022/07/24 04:29:18;;;;;;;13.33;9.50;;;;;;;17.09;91.83;99026.88;5075150;28;20274;-54
2022/07/24 04:31:45;;;;;;;11.57;10.10;;;;;;;17.10;92.43;99031.16;5073417;28;20209;-52
2022/07/24 04:34:12;;;;;;;13.27;9.47;;;;;;;17.13;91.91;99028.16;5082322;28;20250;-57
2022/07/24 04:36:39;;;;;;;12.93;9.60;;;;;;;17.16;91.57;99029.63;5074396;28;20542;-54
2022/07/24 04:39:06;;;;;;;12.73;10.47;;;;;;;17.20;92.33;99023.78;5075355;28;20196;-49
2022/07/24 04:41:32;;;;;;;10.77;9.50;;;;;;;17.24;92.03;99021.63;5067544;28;20277;-51
2022/07/24 04:44:00;;;;;;;12.53;9.67;;;;;;;17.30;92.08;99027.97;5071293;28;20224;-49
2022/07/24 04:46:27;;;;;;;11.63;9.30;;;;;;;17.30;92.82;99028.78;5076003;28;20200;-51
2022/07/24 04:48:54;;;;;;;11.50;9.60;;;;;;;17.35;91.88;99030.88;5067424;28;20202;-51
2022/07/24 04:51:21;;;;;;;14.23;9.47;;;;;;;17.38;91.15;99025.22;5071487;28;20188;-50
2022/07/24 04:53:47;;;;;;;11.60;10.00;;;;;;;17.40;91.14;99026.69;5077887;28;20229;-50
2022/07/24 04:56:14;;;;;;;12.13;9.30;;;;;;;17.43;91.09;99036.03;5069332;28;20696;-51
2022/07/24 04:58:41;;;;;;;12.30;9.83;;;;;;;17.47;90.60;99036.50;5075479;28;20192;-51
2022/07/24 05:01:09;;;;;;;10.47;9.37;;;;;;;17.50;90.77;99030.81;5074836;28;20274;-53
2022/07/24 05:03:36;;;;;;;12.93;10.07;;;;;;;17.52;91.26;99040.19;5074231;28;20606;-53
2022/07/24 05:06:03;;;;;;;11.23;9.63;;;;;;;17.55;90.58;99036.34;5078679;28;20190;-53
2022/07/24 05:08:29;;;;;;;14.77;10.30;;;;;;;17.56;90.89;99035.34;5074547;28;20194;-50
2022/07/24 05:10:56;;;;;;;11.00;9.77;;;;;;;17.60;90.98;99035.81;5072654;28;20279;-52
2022/07/24 05:13:23;;;;;;;16.63;9.20;;;;;;;17.65;90.92;99034.25;5076724;28;20290;-52
2022/07/24 05:15:50;;;;;;;11.93;9.83;;;;;;;17.66;90.65;99035.06;5073268;28;20300;-51
2022/07/24 05:18:19;;;;;;;10.43;9.33;;;;;;;17.69;90.46;99039.97;5078736;28;20202;-52
2022/07/24 05:20:45;;;;;;;10.67;9.57;;;;;;;17.73;89.81;99035.97;5074245;28;20189;-49
2022/07/24 05:23:12;;;;;;;10.67;9.67;;;;;;;17.79;90.38;99029.09;5071018;28;20304;-51
2022/07/24 05:25:39;;;;;;;11.73;9.73;;;;;;;17.83;89.91;99033.84;5072782;28;21337;-52
2022/07/24 05:28:05;;;;;;;10.70;9.60;;;;;;;17.89;89.80;99034.09;5069377;28;20199;-49
2022/07/24 05:30:32;;;;;;;12.00;9.50;;;;;;;17.96;89.85;99040.25;5068526;28;20194;-52
2022/07/24 05:32:59;;;;;;;11.97;9.37;;;;;;;18.03;89.54;99041.13;5070373;28;20231;-52
2022/07/24 05:35:46;;;;;;;12.27;9.10;;;;;;;18.11;89.08;99034.91;5072457;28;20212;-50
2022/07/24 05:38:12;;;;;;;11.47;9.57;;;;;;;18.21;88.41;99026.66;5071100;28;20197;-49
2022/07/24 05:40:39;;;;;;;10.33;9.30;;;;;;;18.25;88.11;99028.75;5065466;28;20190;-52
2022/07/24 05:43:06;;;;;;;11.40;9.73;;;;;;;18.32;88.02;99036.72;5074410;28;20190;-50
2022/07/24 05:45:32;;;;;;;11.27;9.43;;;;;;;18.42;88.00;99033.75;5072403;28;20201;-53
2022/07/24 05:47:59;;;;;;;10.33;9.23;;;;;;;18.46;87.88;99029.72;5070108;28;20286;-50
2022/07/24 05:50:26;;;;;;;11.20;9.37;;;;;;;18.54;87.63;99031.38;5073737;28;20211;-51
2022/07/24 05:52:54;;;;;;;10.53;9.43;;;;;;;18.63;87.82;99037.34;5075390;28;20197;-51
2022/07/24 05:55:21;;;;;;;11.77;9.67;;;;;;;18.68;87.35;99033.13;5072269;28;20210;-51
2022/07/24 05:57:48;;;;;;;10.00;9.00;;;;;;;18.78;86.93;99029.31;5079025;28;20277;-52
2022/07/24 06:00:18;;;;;;;11.23;9.27;;;;;;;18.90;85.73;99035.69;5070663;28;20202;-54
2022/07/24 06:02:46;;;;;;;10.27;9.17;;;;;;;19.06;84.82;99033.78;5072671;28;20196;-50
2022/07/24 06:05:13;;;;;;;9.73;8.53;;;;;;;19.21;84.25;99039.72;5075149;28;20286;-54
2022/07/24 06:07:40;;;;;;;11.17;9.43;;;;;;;19.38;82.72;99034.91;5070785;28;20230;-52
2022/07/24 06:10:09;;;;;;;10.10;9.07;;;;;;;19.54;82.18;99033.75;5067745;28;20450;-51
2022/07/24 06:12:36;;;;;;;10.10;9.00;;;;;;;19.74;80.85;99039.06;5066763;28;20285;-50
2022/07/24 06:15:03;;;;;;;10.10;9.10;;;;;;;19.94;80.27;99040.97;5071851;28;20214;-50
2022/07/24 06:17:49;;;;;;;9.60;8.67;;;;;;;20.15;79.91;99034.66;5068617;28;20648;-51
2022/07/24 06:20:16;;;;;;;8.87;7.97;;;;;;;20.32;76.48;99036.91;5073079;28;20240;-51
2022/07/24 06:22:43;;;;;;;11.33;8.60;;;;;;;20.49;75.85;99038.13;5080319;28;20552;-51
2022/07/24 06:25:12;;;;;;;11.67;8.70;;;;;;;20.72;74.57;99042.19;5075943;28;20274;-53
2022/07/24 06:27:41;;;;;;;9.03;8.17;;;;;;;20.90;73.28;99036.25;5076205;28;20192;-54
2022/07/24 06:30:12;;;;;;;9.83;8.27;;;;;;;20.99;72.48;99038.69;5077782;28;20289;-53
2022/07/24 06:32:39;;;;;;;11.63;8.67;;;;;;;21.17;71.94;99040.69;5078002;28;20276;-54
2022/07/24 06:35:07;;;;;;;9.20;8.23;;;;;;;21.37;72.04;99035.28;5079723;28;20226;-52
2022/07/24 06:37:34;;;;;;;9.87;8.67;;;;;;;21.50;71.52;99035.22;5068843;28;20184;-54
2022/07/24 06:40:01;;;;;;;9.47;8.30;;;;;;;21.67;70.63;99034.75;5078714;28;20195;-51
2022/07/24 06:42:29;;;;;;;13.03;9.43;;;;;;;21.75;69.40;99037.13;5073713;28;20275;-53
2022/07/24 06:44:55;;;;;;;9.63;8.57;;;;;;;21.87;69.12;99047.91;5073285;28;20232;-52
2022/07/24 06:47:22;;;;;;;10.37;9.13;;;;;;;21.95;67.94;99046.81;5077273;28;20671;-55
2022/07/24 06:49:49;;;;;;;11.93;9.23;;;;;;;22.01;66.39;99045.16;5077305;28;20555;-52
2022/07/24 06:52:15;;;;;;;10.90;8.83;;;;;;;22.04;65.00;99047.38;5083771;28;20199;-52
2022/07/24 06:54:42;;;;;;;10.80;9.20;;;;;;;22.19;64.25;99050.53;5070812;28;20686;-53
2022/07/24 06:57:09;;;;;;;10.50;9.40;;;;;;;22.23;63.50;99048.25;5069031;28;20239;-52
2022/07/24 06:59:37;;;;;;;11.13;9.07;;;;;;;22.42;64.02;99046.44;5077111;28;20196;-54
2022/07/24 07:02:04;;;;;;;11.53;9.03;;;;;;;22.48;63.73;99045.59;5079656;28;20566;-52
2022/07/24 07:04:31;;;;;;;10.13;8.77;;;;;;;22.52;62.40;99046.81;5080644;28;20204;-51
2022/07/24 07:06:57;;;;;;;10.63;9.47;;;;;;;22.65;61.98;99042.38;5075558;28;20204;-51
2022/07/24 07:09:24;;;;;;;10.60;9.20;;;;;;;22.67;62.79;99050.97;5075730;28;20223;-52
2022/07/24 07:11:51;;;;;;;11.33;9.40;;;;;;;22.79;63.65;99051.06;5079919;28;20192;-52
2022/07/24 07:14:18;;;;;;;12.40;9.20;;;;;;;22.87;62.48;99055.28;5071585;28;20555;-54
2022/07/24 07:16:46;;;;;;;13.20;9.30;;;;;;;23.00;62.80;99052.47;5071670;28;20204;-51
2022/07/24 07:19:12;;;;;;;14.43;10.10;;;;;;;22.99;62.14;99056.16;5076320;28;20659;-51
2022/07/24 07:21:39;;;;;;;12.03;10.13;;;;;;;23.05;62.31;99065.94;5081926;28;20193;-54
2022/07/24 07:24:07;;;;;;;11.77;10.03;;;;;;;23.12;61.42;99052.53;5070758;28;21845;-54
2022/07/24 07:26:38;;;;;;;14.00;9.70;;;;;;;23.06;61.40;99064.06;5070980;28;20189;-55
2022/07/24 07:29:08;;;;;;;12.67;10.13;;;;;;;23.10;61.38;99050.09;5077251;28;20688;-51
2022/07/24 07:31:35;;;;;;;11.03;9.80;;;;;;;23.01;61.09;99051.44;5079793;28;20276;-53
2022/07/24 07:34:03;;;;;;;11.43;9.70;;;;;;;23.20;61.32;99054.09;5075093;28;20230;-53
2022/07/24 07:36:30;;;;;;;11.90;9.80;;;;;;;23.29;60.47;99050.13;5073016;28;20199;-54
2022/07/24 07:38:57;;;;;;;10.33;9.33;;;;;;;23.28;60.28;99053.84;5073930;28;20210;-51
2022/07/24 07:41:24;;;;;;;10.10;9.10;;;;;;;23.24;60.80;99049.97;5075772;28;20237;-52
2022/07/24 07:43:51;;;;;;;11.83;9.63;;;;;;;23.22;60.33;99041.38;5069144;28;20252;-51
2022/07/24 07:46:18;;;;;;;13.43;9.73;;;;;;;23.32;60.20;99036.34;5075521;28;20197;-51
2022/07/24 07:48:45;;;;;;;11.40;9.83;;;;;;;23.50;59.09;99040.00;5080525;28;20572;-51
2022/07/24 07:51:14;;;;;;;11.60;9.97;;;;;;;23.53;59.10;99042.22;5074022;28;20193;-52
2022/07/24 07:53:41;;;;;;;14.17;10.00;;;;;;;23.65;58.79;99047.63;5078318;28;20316;-51
2022/07/24 07:56:08;;;;;;;10.83;9.30;;;;;;;23.71;58.25;99039.50;5076350;28;20241;-51
2022/07/24 07:58:34;;;;;;;11.47;9.27;;;;;;;23.79;58.36;99037.56;5077674;28;22008;-54
2022/07/24 08:01:01;;;;;;;12.33;9.47;;;;;;;23.91;58.40;99040.25;5078115;28;20207;-55
2022/07/24 08:03:28;;;;;;;14.97;10.67;;;;;;;23.95;57.95;99041.41;5079614;28;20213;-54
2022/07/24 08:06:14;;;;;;;11.33;9.97;;;;;;;23.94;57.69;99045.94;5076913;28;20200;-53
2022/07/24 08:08:41;;;;;;;12.10;8.97;;;;;;;23.96;57.44;99035.03;5072913;28;20271;-52
2022/07/24 08:11:08;;;;;;;11.57;10.17;;;;;;;24.14;58.21;99034.19;5072330;28;20244;-52
2022/07/24 08:13:34;;;;;;;10.57;9.47;;;;;;;24.33;57.62;99034.91;5073988;28;20219;-55
2022/07/24 08:16:01;;;;;;;11.40;10.20;;;;;;;24.26;57.26;99036.88;5074655;28;20253;-53
2022/07/24 08:18:28;;;;;;;13.23;9.90;;;;;;;24.41;57.58;99033.72;5074556;28;20203;-55
2022/07/24 08:20:55;;;;;;;10.97;9.57;;;;;;;24.46;56.75;99033.84;5074174;28;20722;-52
2022/07/24 08:23:23;;;;;;;15.50;9.70;;;;;;;24.56;56.85;99035.94;5076708;28;21942;-51
2022/07/24 08:25:50;;;;;;;13.83;10.43;;;;;;;24.59;58.04;99035.50;5077728;28;20192;-53
2022/07/24 08:28:17;;;;;;;16.10;10.53;;;;;;;24.65;56.78;99041.72;5077083;28;20596;-52
2022/07/24 08:30:43;;;;;;;12.93;10.33;;;;;;;24.71;56.21;99040.81;5070882;28;20594;-51
2022/07/24 08:33:10;;;;;;;10.97;9.87;;;;;;;24.65;57.50;99039.06;5078283;28;20216;-53
2022/07/24 08:35:37;;;;;;;13.00;10.80;;;;;;;24.66;57.05;99043.34;5074920;28;20256;-52
2022/07/24 08:38:05;;;;;;;12.00;10.00;;;;;;;24.78;57.03;99040.72;5072093;28;20266;-52
2022/07/24 08:40:36;;;;;;;13.90;10.03;;;;;;;24.95;54.64;99038.13;5073642;28;20222;-55
2022/07/24 08:43:04;;;;;;;10.47;9.37;;;;;;;24.99;55.55;99036.63;5085084;28;20652;-53
2022/07/24 08:45:36;;;;;;;13.20;9.57;;;;;;;25.08;54.50;99034.38;5067261;28;20198;-55
2022/07/24 08:48:05;;;;;;;11.77;9.73;;;;;;;24.98;54.39;99035.78;5077826;28;20230;-51
2022/07/24 08:50:32;;;;;;;13.27;9.73;;;;;;;25.12;54.33;99036.34;5073363;28;20550;-54
2022/07/24 08:53:00;;;;;;;10.40;8.97;;;;;;;25.30;54.15;99042.59;5066744;28;20208;-52
2022/07/24 08:55:27;;;;;;;9.60;8.57;;;;;;;25.43;52.51;99047.66;5073974;28;20894;-53
2022/07/24 08:57:56;;;;;;;9.77;8.70;;;;;;;25.49;52.41;99043.22;5068021;28;20211;-54
2022/07/24 09:00:23;;;;;;;10.40;9.40;;;;;;;25.55;51.11;99042.28;5075707;28;20228;-55
2022/07/24 09:02:50;;;;;;;11.27;8.13;;;;;;;25.49;50.79;99041.34;5073393;28;20257;-55
2022/07/24 09:05:16;;;;;;;17.70;10.83;;;;;;;25.56;50.32;99040.41;5076617;28;20226;-52
2022/07/24 09:07:43;;;;;;;14.77;9.63;;;;;;;25.70;50.15;99044.41;5074843;28;20277;-51
2022/07/24 09:10:13;;;;;;;11.40;8.98;;;;;;;25.47;49.94;99037.31;5076886;28;20217;-55
2022/07/24 09:12:42;;;;;;;9.47;8.47;;;;;;;25.73;50.17;99040.44;5075057;28;20188;-52
2022/07/24 09:15:16;;;;;;;10.63;8.27;;;;;;;25.65;49.33;99038.97;5075324;28;20210;-52
2022/07/24 09:17:50;;;;;;;10.43;8.73;;;;;;;25.68;50.54;99035.00;5071854;28;20238;-54
2022/07/24 09:20:17;;;;;;;10.70;8.20;;;;;;;25.69;50.58;99034.75;5070247;28;20189;-51
2022/07/24 09:22:44;;;;;;;10.93;8.10;;;;;;;25.76;47.95;99027.41;5074991;28;20267;-54
2022/07/24 09:25:14;;;;;;;8.13;7.27;;;;;;;25.93;47.75;99027.44;5076531;28;20755;-54
2022/07/24 09:27:45;;;;;;;12.13;8.33;;;;;;;25.91;48.81;99029.53;5074848;28;20274;-55
2022/07/24 09:30:26;;;;;;;9.27;8.17;;;;;;;25.95;47.65;99027.19;5074863;28;20278;-52
2022/07/24 09:32:54;;;;;;;12.13;8.17;;;;;;;26.09;48.14;99027.66;5075775;28;20194;-52
2022/07/24 09:35:24;;;;;;;9.37;8.47;;;;;;;26.17;48.12;99018.47;5073899;28;20209;-52
2022/07/24 09:37:54;;;;;;;11.97;8.40;;;;;;;26.20;48.09;99024.13;5077936;28;20306;-51
2022/07/24 09:40:22;;;;;;;9.20;7.60;;;;;;;26.32;48.45;99024.06;5074546;28;20566;-51
2022/07/24 09:42:48;;;;;;;9.17;8.27;;;;;;;26.48;49.05;99022.41;5074606;28;20188;-55
2022/07/24 09:45:17;;;;;;;9.33;7.43;;;;;;;26.56;46.17;99023.03;5073599;28;20204;-51
2022/07/24 09:47:44;;;;;;;8.67;7.83;;;;;;;26.33;44.75;99020.31;5076349;28;20191;-51
2022/07/24 09:50:16;;;;;;;9.30;7.67;;;;;;;26.47;45.40;99015.41;5075431;28;20270;-52
2022/07/24 09:52:44;;;;;;;7.97;7.17;;;;;;;26.63;44.69;99012.97;5075786;28;20639;-52
2022/07/24 09:55:24;;;;;;;8.90;7.17;;;;;;;26.64;43.07;99012.69;5072627;28;20637;-53
2022/07/24 09:57:52;;;;;;;8.53;7.73;;;;;;;26.76;42.92;99015.28;5075417;28;20216;-51
2022/07/24 10:00:21;;;;;;;7.83;6.93;;;;;;;26.66;43.43;99013.25;5074945;28;20179;-51
2022/07/24 10:02:48;;;;;;;9.53;7.67;;;;;;;26.73;44.78;99009.59;5075889;28;20224;-54
2022/07/24 10:05:15;;;;;;;12.50;7.47;;;;;;;26.94;44.42;99013.38;5075303;28;20206;-51
2022/07/24 10:07:43;;;;;;;8.60;7.60;;;;;;;26.90;43.68;99006.91;5070720;28;20561;-50
2022/07/24 10:10:11;;;;;;;9.80;7.13;;;;;;;26.94;42.31;99013.38;5075191;28;20223;-49
2022/07/24 10:12:39;;;;;;;8.60;6.47;;;;;;;27.07;40.02;99022.91;5075173;28;20632;-51
2022/07/24 10:15:08;;;;;;;7.63;6.50;;;;;;;26.98;41.06;99011.84;5072430;28;20209;-50
2022/07/24 10:18:00;;;;;;;9.37;7.23;;;;;;;27.11;42.01;99005.28;5069888;28;20217;-50
2022/07/24 10:20:38;;;;;;;8.10;7.30;;;;;;;27.07;42.24;99010.31;5073747;28;20184;-51
2022/07/24 10:23:06;;;;;;;11.38;7.07;;;;;;;27.00;41.78;99007.03;5071668;28;20284;-50
2022/07/24 10:25:49;;;;;;;8.23;7.33;;;;;;;27.10;41.04;99004.44;5073028;28;20189;-50
2022/07/24 10:28:30;;;;;;;7.27;6.53;;;;;;;27.13;41.04;99013.88;5073046;28;20634;-51
2022/07/24 10:30:57;;;;;;;9.35;6.22;;;;;;;27.05;39.47;99000.91;5073793;28;20188;-50
2022/07/24 10:33:25;;;;;;;9.00;6.00;;;;;;;27.36;41.09;99010.09;5072138;28;20217;-49
2022/07/24 10:35:55;;;;;;;6.97;6.38;;;;;;;27.49;40.51;99006.25;5075128;28;20634;-52
2022/07/24 10:38:29;;;;;;;8.87;6.53;;;;;;;27.62;40.01;99009.56;5072711;28;20226;-52
2022/07/24 10:41:05;;;;;;;7.53;6.20;;;;;;;27.65;39.95;99003.69;5075745;28;20272;-52
2022/07/24 10:43:32;;;;;;;7.20;6.50;;;;;;;27.64;38.88;98999.38;5071986;28;20207;-50
2022/07/24 10:46:12;;;;;;;8.20;6.17;;;;;;;27.55;37.33;98997.19;5072977;28;20201;-52
2022/07/24 10:48:41;;;;;;;7.60;5.70;;;;;;;27.64;39.14;98999.38;5072866;28;20197;-51
2022/07/24 10:51:13;;;;;;;7.47;6.40;;;;;;;27.64;38.61;98996.69;5070233;28;20265;-54
2022/07/24 10:53:49;;;;;;;6.78;5.85;;;;;;;27.83;39.53;98995.25;5075994;28;20226;-54
2022/07/24 10:56:28;;;;;;;7.73;6.23;;;;;;;27.68;38.15;98987.91;5069725;28;20561;-54
2022/07/24 10:58:58;;;;;;;8.13;6.57;;;;;;;27.60;38.71;98985.69;5072154;28;20224;-52
2022/07/24 11:01:34;;;;;;;8.77;5.90;;;;;;;27.66;38.30;98983.84;5071730;28;20245;-52
2022/07/24 11:04:03;;;;;;;7.80;6.03;;;;;;;27.89;37.88;98982.72;5073008;28;20286;-54
2022/07/24 11:06:44;;;;;;;7.37;6.57;;;;;;;27.96;37.97;98986.00;5076346;28;20193;-51
2022/07/24 11:09:14;;;;;;;7.13;6.43;;;;;;;28.01;37.58;98989.78;5073329;28;20199;-51
2022/07/24 11:11:43;;;;;;;6.50;5.87;;;;;;;28.11;37.17;98982.59;5074085;28;20282;-53
2022/07/24 11:14:11;;;;;;;6.72;5.63;;;;;;;28.22;37.60;98978.13;5078877;28;20226;-51
2022/07/24 11:16:38;;;;;;;6.40;5.80;;;;;;;28.33;37.16;98980.88;5080310;28;20220;-51
2022/07/24 11:19:29;;;;;;;8.87;6.03;;;;;;;28.40;37.12;98970.72;5076617;28;20280;-54
2022/07/24 11:22:07;;;;;;;6.15;5.55;;;;;;;28.50;36.81;98972.66;5072530;28;20192;-52
2022/07/24 11:24:34;;;;;;;7.45;5.88;;;;;;;28.42;36.27;98964.03;5072313;28;20213;-51
2022/07/24 11:27:06;;;;;;;7.83;6.03;;;;;;;28.63;37.69;98963.31;5078043;28;20196;-51
2022/07/24 11:29:35;;;;;;;7.40;6.10;;;;;;;28.67;37.40;98950.97;5070397;28;20695;-52
2022/07/24 11:32:05;;;;;;;6.88;5.75;;;;;;;28.79;37.53;98951.59;5072254;28;20204;-51